createdAt,value
2023-04-04T00:00:43.481Z,100075.77
2023-04-04T00:03:18.332Z,100082.52
2023-04-04T00:05:48.787Z,100077.20
2023-04-04T00:08:18.187Z,100079.55
2023-04-04T00:11:00.587Z,100072.79
2023-04-04T00:13:36.246Z,100079.68
2023-04-04T00:16:12.587Z,100080.21
2023-04-04T00:18:42.428Z,100082.27
2023-04-04T00:21:15.774Z,100079.79
2023-04-04T00:23:46.246Z,100080.34
2023-04-04T00:26:23.448Z,100083.80
2023-04-04T00:28:51.351Z,100087.23
2023-04-04T00:31:27.546Z,100088.59
2023-04-04T00:33:56.110Z,100085.86
2023-04-04T00:36:26.815Z,100092.83
2023-04-04T00:38:58.140Z,100090.31
2023-04-04T00:41:27.675Z,100093.98
2023-04-04T00:43:58.898Z,100094.52
2023-04-04T00:46:28.200Z,100101.20
2023-04-04T00:48:57.447Z,100106.67
2023-04-04T00:51:29.797Z,100110.98
2023-04-04T00:54:05.554Z,100114.52
2023-04-04T00:56:36.404Z,100102.59
2023-04-04T00:59:09.681Z,100104.06
2023-04-04T01:01:44.897Z,100111.80
2023-04-04T01:04:16.746Z,100111.65
2023-04-04T01:06:46.770Z,100103.53
2023-04-04T01:09:20.422Z,100104.13
2023-04-04T01:11:52.577Z,100101.64
2023-04-04T01:14:26.781Z,100100.30
2023-04-04T01:16:57.892Z,100098.29
2023-04-04T01:19:37.823Z,100110.14
2023-04-04T01:22:14.241Z,100104.44
2023-04-04T01:24:45.100Z,100102.02
2023-04-04T01:29:12.354Z,100110.11
2023-04-04T01:31:48.488Z,100099.98
2023-04-04T01:34:28.024Z,100090.65
2023-04-04T01:37:01.662Z,100091.23
2023-04-04T01:39:51.163Z,100097.30
2023-04-04T01:42:44.803Z,100093.95
2023-04-04T01:45:17.903Z,100094.16
2023-04-04T01:47:48.479Z,100102.63
2023-04-04T01:50:42.011Z,100101.59
2023-04-04T01:53:12.853Z,100096.28
2023-04-04T01:55:45.204Z,100099.61
2023-04-04T01:58:15.335Z,100094.13
2023-04-04T02:00:46.406Z,100097.22
2023-04-04T02:03:28.150Z,100099.09
2023-04-04T02:05:58.555Z,100100.75
2023-04-04T02:08:30.690Z,100096.95
2023-04-04T02:11:05.145Z,100095.27
2023-04-04T02:13:38.151Z,100101.18
2023-04-04T02:16:16.150Z,100103.66
2023-04-04T02:18:45.543Z,100099.45
2023-04-04T02:21:16.622Z,100107.50
2023-04-04T02:23:47.333Z,100108.55
2023-04-04T02:26:15.594Z,100111.13
2023-04-04T02:28:49.884Z,100111.06
2023-04-04T02:31:19.541Z,100118.89
2023-04-04T02:33:49.736Z,100119.46
2023-04-04T02:36:20.922Z,100123.90
2023-04-04T02:38:51.493Z,100119.23
2023-04-04T02:41:25.891Z,100119.40
2023-04-04T02:44:01.737Z,100115.64
2023-04-04T02:53:03.120Z,100094.00
2023-04-04T02:55:38.194Z,100109.64
2023-04-04T02:58:16.618Z,100117.53
2023-04-04T03:00:56.615Z,100111.82
2023-04-04T03:03:36.467Z,100103.33
2023-04-04T03:06:07.845Z,100107.68
2023-04-04T03:08:39.304Z,100114.04
2023-04-04T03:11:12.131Z,100121.08
2023-04-04T03:13:44.516Z,100128.12
2023-04-04T03:16:17.784Z,100126.14
2023-04-04T03:18:57.492Z,100123.46
2023-04-04T03:21:29.654Z,100113.94
2023-04-04T03:24:00.739Z,100121.43
2023-04-04T03:26:38.014Z,100124.15
2023-04-04T03:29:12.045Z,100123.66
2023-04-04T03:31:44.800Z,100128.66
2023-04-04T03:34:15.324Z,100132.14
2023-04-04T03:36:50.635Z,100124.83
2023-04-04T03:39:23.891Z,100125.01
2023-04-04T03:41:56.883Z,100130.90
2023-04-04T03:44:31.261Z,100138.64
2023-04-04T03:47:07.201Z,100137.30
2023-04-04T03:49:42.571Z,100141.00
2023-04-04T03:52:17.937Z,100140.48
2023-04-04T03:54:58.260Z,100138.89
2023-04-04T03:57:33.033Z,100137.52
2023-04-04T04:00:10.477Z,100121.96
2023-04-04T04:02:45.760Z,100104.76
2023-04-04T04:05:39.206Z,100108.73
2023-04-04T04:08:28.971Z,100139.99
2023-04-04T04:11:10.379Z,100143.08
2023-04-04T04:13:43.479Z,100142.55
2023-04-04T04:16:29.068Z,100147.45
2023-04-04T04:19:05.912Z,100149.32
2023-04-04T04:22:02.033Z,100153.08
2023-04-04T04:24:34.586Z,100156.70
2023-04-04T04:27:09.909Z,100158.09
2023-04-04T04:29:52.428Z,100162.11
2023-04-04T04:32:24.135Z,100159.36
2023-04-04T04:34:55.582Z,100160.73
2023-04-04T04:40:16.837Z,100155.57
2023-04-04T04:43:19.900Z,100158.96
2023-04-04T04:46:18.132Z,100161.85
2023-04-04T04:48:52.758Z,100163.48
2023-04-04T04:51:51.490Z,100160.58
2023-04-04T04:54:25.516Z,100157.00
2023-04-04T04:57:02.453Z,100157.08
2023-04-04T04:59:34.772Z,100157.98
2023-04-04T05:05:10.973Z,100166.52
2023-04-04T05:07:50.492Z,100165.01
2023-04-04T05:10:26.508Z,100168.13
2023-04-04T05:13:27.108Z,100162.11
2023-04-04T05:16:01.090Z,100166.27
2023-04-04T05:18:38.002Z,100164.35
2023-04-04T05:21:14.155Z,100175.13
2023-04-04T05:23:49.265Z,100176.98
2023-04-04T05:26:28.258Z,100174.52
2023-04-04T05:32:41.333Z,100179.34
2023-04-04T05:38:08.323Z,100167.88
2023-04-04T05:41:59.786Z,100173.94
2023-04-04T05:44:37.706Z,100171.00
2023-04-04T05:47:32.138Z,100173.92
2023-04-04T05:50:07.743Z,100186.48
2023-04-04T05:52:46.528Z,100185.66
2023-04-04T05:55:20.714Z,100198.89
2023-04-04T05:58:00.285Z,100190.94
2023-04-04T06:00:44.416Z,100198.09
2023-04-04T06:03:41.118Z,100199.02
2023-04-04T06:06:18.892Z,100195.33
2023-04-04T06:08:54.250Z,100198.28
2023-04-04T06:11:56.677Z,100197.80
2023-04-04T06:14:54.882Z,100203.55
2023-04-04T06:17:35.065Z,100207.39
2023-04-04T06:20:35.678Z,100203.45
2023-04-04T06:23:07.292Z,100203.61
2023-04-04T06:25:42.834Z,100205.56
2023-04-04T06:28:20.152Z,100210.05
2023-04-04T06:31:29.451Z,100203.41
2023-04-04T06:35:06.527Z,100210.35
2023-04-04T06:37:58.170Z,100217.05
2023-04-04T06:40:59.020Z,100208.97
2023-04-04T06:44:04.816Z,100213.07
2023-04-04T06:47:02.076Z,100208.45
2023-04-04T06:50:25.310Z,100214.67
2023-04-04T06:53:48.308Z,100214.84
2023-04-04T06:56:27.314Z,100209.55
2023-04-04T06:59:13.827Z,100214.86
2023-04-04T07:01:48.786Z,100216.48
2023-04-04T07:04:22.423Z,100211.45
2023-04-04T07:06:55.973Z,100217.03
2023-04-04T07:09:38.609Z,100213.02
2023-04-04T07:12:13.258Z,100211.77
2023-04-04T07:14:53.690Z,100203.92
2023-04-04T07:17:25.504Z,100206.60
2023-04-04T07:20:10.626Z,100212.33
2023-04-04T07:22:48.279Z,100208.02
2023-04-04T07:25:32.502Z,100215.45
2023-04-04T07:28:12.812Z,100215.36
2023-04-04T07:31:03.642Z,100220.84
2023-04-04T07:33:45.768Z,100225.06
2023-04-04T07:36:19.779Z,100229.67
2023-04-04T07:38:56.780Z,100224.02
2023-04-04T07:41:36.200Z,100224.81
2023-04-04T07:44:14.358Z,100230.56
2023-04-04T07:46:58.715Z,100239.54
2023-04-04T07:49:40.974Z,100233.13
2023-04-04T07:52:15.517Z,100239.27
2023-04-04T07:54:51.768Z,100235.84
2023-04-04T07:57:31.294Z,100237.15
2023-04-04T08:00:09.354Z,100235.38
2023-04-04T08:03:15.088Z,100245.11
2023-04-04T08:05:59.778Z,100238.50
2023-04-04T08:08:30.373Z,100232.97
2023-04-04T08:11:09.016Z,100230.73
2023-04-04T08:13:47.904Z,100236.44
2023-04-04T08:16:23.311Z,100242.38
2023-04-04T08:19:04.459Z,100232.98
2023-04-04T08:21:41.454Z,100233.60
2023-04-04T08:24:18.612Z,100240.84
2023-04-04T08:27:22.939Z,100237.68
2023-04-04T08:30:00.969Z,100240.75
2023-04-04T08:32:40.831Z,100243.89
2023-04-04T08:35:15.575Z,100247.45
2023-04-04T08:38:11.093Z,100241.97
2023-04-04T08:40:40.487Z,100243.46
2023-04-04T08:43:10.280Z,100240.66
2023-04-04T08:45:39.391Z,100240.42
2023-04-04T08:48:09.879Z,100237.41
2023-04-04T08:50:40.045Z,100238.22
2023-04-04T08:53:11.910Z,100237.98
2023-04-04T08:55:41.445Z,100241.98
2023-04-04T08:58:11.235Z,100241.17
2023-04-04T09:00:43.574Z,100236.67
2023-04-04T09:03:20.104Z,100234.75
2023-04-04T09:05:49.972Z,100227.84
2023-04-04T09:08:19.074Z,100230.31
2023-04-04T09:10:48.383Z,100237.69
2023-04-04T09:13:17.162Z,100240.26
2023-04-04T09:15:52.501Z,100235.30
2023-04-04T09:18:20.915Z,100236.05
2023-04-04T09:20:54.318Z,100239.11
2023-04-04T09:23:23.981Z,100239.09
2023-04-04T09:26:03.964Z,100238.89
2023-04-04T09:28:34.538Z,100240.27
2023-04-04T09:31:06.353Z,100235.63
2023-04-04T09:33:36.000Z,100237.98
2023-04-04T09:36:10.490Z,100237.69
2023-04-04T09:38:45.886Z,100230.77
2023-04-04T09:41:16.149Z,100228.79
2023-04-04T09:43:47.421Z,100227.18
2023-04-04T09:46:19.507Z,100226.54
2023-04-04T09:48:51.862Z,100221.40
2023-04-04T09:51:20.427Z,100223.04
2023-04-04T09:53:49.130Z,100226.04
2023-04-04T09:56:19.890Z,100230.77
2023-04-04T09:59:02.537Z,100219.83
2023-04-04T10:01:34.417Z,100226.16
2023-04-04T10:04:04.685Z,100232.52
2023-04-04T10:06:33.381Z,100236.54
2023-04-04T10:09:08.045Z,100239.30
2023-04-04T10:11:38.957Z,100236.13
2023-04-04T10:14:12.667Z,100234.91
2023-04-04T10:16:45.718Z,100234.14
2023-04-04T10:19:22.991Z,100228.52
2023-04-04T10:21:52.196Z,100228.41
2023-04-04T10:24:22.347Z,100230.16
2023-04-04T10:26:55.803Z,100229.05
2023-04-04T10:29:33.810Z,100222.86
2023-04-04T10:48:01.775Z,100218.05
2023-04-04T10:58:18.461Z,100215.20
2023-04-04T11:01:12.978Z,100213.16
2023-04-04T11:04:22.965Z,100213.39
2023-04-04T11:07:09.822Z,100217.52
2023-04-04T11:09:54.835Z,100220.69
2023-04-04T11:12:34.920Z,100214.94
2023-04-04T11:15:04.103Z,100214.46
2023-04-04T11:18:28.885Z,100203.48
2023-04-04T11:21:05.700Z,100207.02
2023-04-04T11:23:48.915Z,100208.29
2023-04-04T11:26:18.253Z,100204.63
2023-04-04T11:28:49.043Z,100200.18
2023-04-04T11:31:36.178Z,100192.61
2023-04-04T11:34:12.360Z,100189.44
2023-04-04T11:36:40.973Z,100193.51
2023-04-04T11:39:38.048Z,100194.95
2023-04-04T11:43:09.143Z,100190.91
2023-04-04T11:45:47.733Z,100185.84
2023-04-04T11:54:47.056Z,100173.11
2023-04-04T11:57:21.646Z,100173.53
2023-04-04T11:59:53.937Z,100166.92
2023-04-04T12:02:26.956Z,100171.14
2023-04-04T12:04:56.284Z,100166.48
2023-04-04T12:07:28.522Z,100160.08
2023-04-04T12:10:02.574Z,100156.25
2023-04-04T12:12:30.791Z,100153.92
2023-04-04T12:15:10.283Z,100149.76
2023-04-04T12:17:45.240Z,100163.06
2023-04-04T12:20:15.551Z,100173.20
2023-04-04T12:22:44.077Z,100185.84
2023-04-04T12:25:11.575Z,100191.30
2023-04-04T12:27:44.630Z,100179.84
2023-04-04T12:30:16.060Z,100180.14
2023-04-04T12:32:44.632Z,100182.59
2023-04-04T12:35:14.706Z,100178.59
2023-04-04T12:37:59.313Z,100178.99
2023-04-04T12:40:37.851Z,100182.79
2023-04-04T12:43:09.313Z,100185.73
2023-04-04T12:45:41.357Z,100190.13
2023-04-04T12:48:14.357Z,100191.14
2023-04-04T12:51:00.302Z,100188.35
2023-04-04T12:53:30.361Z,100189.16
2023-04-04T12:56:06.194Z,100183.88
2023-04-04T12:58:36.102Z,100191.55
2023-04-04T13:01:11.329Z,100189.77
2023-04-04T13:03:43.075Z,100193.74
2023-04-04T13:06:13.408Z,100194.49
2023-04-04T13:08:56.055Z,100193.48
2023-04-04T13:12:04.132Z,100193.81
2023-04-04T13:14:57.161Z,100181.16
2023-04-04T13:17:25.511Z,100189.14
2023-04-04T13:19:58.518Z,100189.10
2023-04-04T13:22:36.764Z,100189.70
2023-04-04T13:25:05.063Z,100191.42
2023-04-04T13:27:32.526Z,100194.90
2023-04-04T13:30:00.786Z,100197.03
2023-04-04T13:32:29.879Z,100198.17
2023-04-04T13:34:58.057Z,100199.06
2023-04-04T13:37:26.273Z,100197.64
2023-04-04T13:39:54.075Z,100199.94
2023-04-04T13:42:23.826Z,100202.24
2023-04-04T13:47:20.228Z,100201.78
2023-04-04T13:49:57.766Z,100201.16
2023-04-04T13:52:28.587Z,100193.83
2023-04-04T13:54:57.805Z,100198.77
2023-04-04T13:57:27.579Z,100199.02
2023-04-04T13:59:59.237Z,100196.55
2023-04-04T14:02:28.987Z,100194.05
2023-04-04T14:04:57.580Z,100189.77
2023-04-04T14:07:26.111Z,100187.10
2023-04-04T14:09:54.393Z,100179.45
2023-04-04T14:12:23.055Z,100173.30
2023-04-04T14:14:51.832Z,100169.17
2023-04-04T14:17:24.684Z,100169.77
2023-04-04T14:19:54.252Z,100164.67
2023-04-04T14:22:23.042Z,100160.48
2023-04-04T14:24:53.758Z,100151.66
2023-04-04T14:27:22.387Z,100150.73
2023-04-04T14:29:50.919Z,100148.56
2023-04-04T14:32:19.496Z,100148.36
2023-04-04T14:34:50.708Z,100146.20
2023-04-04T14:37:19.410Z,100135.73
2023-04-04T14:39:52.424Z,100135.52
2023-04-04T14:45:28.755Z,100121.90
2023-04-04T14:48:29.340Z,100116.92
2023-04-04T15:07:44.989Z,100090.45
2023-04-04T15:10:29.828Z,100087.45
2023-04-04T15:16:34.207Z,100067.41
2023-04-04T15:19:09.491Z,100080.17
2023-04-04T15:21:57.318Z,100076.38
2023-04-04T15:24:33.289Z,100075.86
2023-04-04T15:27:22.767Z,100069.91
2023-04-04T15:37:13.187Z,100063.92
2023-04-04T15:40:12.253Z,100059.35
2023-04-04T15:43:36.813Z,100053.10
2023-04-04T15:46:40.606Z,100048.36
2023-04-04T15:49:17.103Z,100046.54
2023-04-04T15:52:08.145Z,100038.46
2023-04-04T15:54:45.734Z,100043.75
2023-04-04T15:57:25.715Z,100041.54
2023-04-04T16:00:10.028Z,100045.85
2023-04-04T16:02:46.995Z,100036.88
2023-04-04T16:05:25.466Z,100041.67
2023-04-04T16:07:56.698Z,100041.33
2023-04-04T16:10:32.219Z,100041.73
2023-04-04T16:13:05.701Z,100038.17
2023-04-04T16:15:43.646Z,100037.29
2023-04-04T16:18:39.414Z,100038.87
2023-04-04T16:22:49.589Z,100034.83
2023-04-04T16:25:28.089Z,100043.73
2023-04-04T16:28:06.212Z,100053.13
2023-04-04T16:30:55.635Z,100050.08
2023-04-04T16:33:31.292Z,100037.80
2023-04-04T16:36:12.797Z,100035.70
2023-04-04T16:38:50.337Z,100041.79
2023-04-04T16:41:25.540Z,100033.09
2023-04-04T16:44:31.834Z,100034.52
2023-04-04T16:47:15.601Z,100035.83
2023-04-04T16:49:50.024Z,100032.92
2023-04-04T16:52:27.696Z,100030.73
2023-04-04T16:55:00.607Z,100029.05
2023-04-04T16:58:02.797Z,100032.29
2023-04-04T17:00:35.067Z,100033.21
2023-04-04T17:03:11.363Z,100036.83
2023-04-04T17:05:50.395Z,100037.94
2023-04-04T17:08:43.800Z,100030.73
2023-04-04T17:11:34.108Z,100036.42
2023-04-04T17:14:35.804Z,100041.65
2023-04-04T17:17:23.287Z,100039.97
2023-04-04T17:20:49.012Z,100044.98
2023-04-04T17:23:22.065Z,100045.76
2023-04-04T17:26:01.205Z,100045.64
2023-04-04T17:29:10.100Z,100050.09
2023-04-04T17:32:43.182Z,100044.39
2023-04-04T17:35:52.725Z,100046.33
2023-04-04T17:38:42.473Z,100048.71
2023-04-04T17:41:39.784Z,100048.91
2023-04-04T17:44:12.183Z,100054.33
2023-04-04T17:46:54.109Z,100058.81
2023-04-04T17:49:59.181Z,100065.25
2023-04-04T17:52:35.131Z,100068.61
2023-04-04T17:55:11.608Z,100074.73
2023-04-04T17:57:54.373Z,100074.57
2023-04-04T18:00:41.672Z,100072.73
2023-04-04T18:03:24.089Z,100074.19
2023-04-04T18:06:07.612Z,100071.23
2023-04-04T18:08:51.484Z,100069.27
2023-04-04T18:11:46.932Z,100066.48
2023-04-04T18:14:23.055Z,100062.66
2023-04-04T18:17:31.880Z,100056.75
2023-04-04T18:21:02.061Z,100050.48
2023-04-04T18:23:39.046Z,100042.86
2023-04-04T18:26:22.901Z,100040.48
2023-04-04T18:29:20.802Z,100033.09
2023-04-04T18:32:05.930Z,100023.44
2023-04-04T18:35:14.721Z,100004.27
2023-04-04T18:37:53.561Z,99987.37
2023-04-04T18:41:39.905Z,99970.29
2023-04-04T18:44:42.326Z,99961.55
2023-04-04T18:47:44.271Z,99954.14
2023-04-04T18:50:35.859Z,99947.95
2023-04-04T18:53:09.123Z,99932.44
2023-04-04T18:55:52.275Z,99920.09
2023-04-04T18:58:42.724Z,99907.55
2023-04-04T19:01:20.304Z,99902.09
2023-04-04T19:04:30.806Z,99897.83
2023-04-04T19:07:26.098Z,99891.74
2023-04-04T19:10:10.591Z,99897.59
2023-04-04T19:13:32.752Z,99906.91
2023-04-04T19:16:19.773Z,99907.98
2023-04-04T19:19:21.850Z,99905.77
2023-04-04T19:22:10.720Z,99907.23
2023-04-04T19:25:20.492Z,99915.52
2023-04-04T19:28:22.100Z,99917.13
2023-04-04T19:31:22.460Z,99917.09
2023-04-04T19:34:15.151Z,99915.61
2023-04-04T19:37:04.234Z,99918.24
2023-04-04T19:40:01.401Z,99915.55
2023-04-04T19:42:45.329Z,99914.21
2023-04-04T19:45:44.702Z,99914.95
2023-04-04T19:48:53.528Z,99916.17
2023-04-04T19:51:52.478Z,99921.20
2023-04-04T19:54:47.233Z,99921.10
2023-04-04T19:57:22.698Z,99921.07
2023-04-04T20:00:25.423Z,99922.40
2023-04-04T20:03:26.402Z,99917.92
2023-04-04T20:06:49.451Z,99918.86
2023-04-04T20:09:40.097Z,99929.14
2023-04-04T20:12:37.215Z,99941.27
2023-04-04T20:19:51.609Z,99950.16
2023-04-04T20:22:45.862Z,99948.44
2023-04-04T20:25:47.643Z,99954.23
2023-04-04T20:28:29.355Z,99952.27
2023-04-04T20:31:35.189Z,99952.32
2023-04-04T20:34:09.556Z,99948.84
2023-04-04T20:36:41.015Z,99942.05
2023-04-04T20:39:56.674Z,99961.33
2023-04-04T20:42:37.339Z,99968.17
2023-04-04T20:45:53.365Z,99967.19
2023-04-04T20:48:39.532Z,99958.48
2023-04-04T20:51:32.451Z,99941.16
2023-04-04T20:54:06.818Z,99922.05
2023-04-04T20:56:46.855Z,99909.09
2023-04-04T20:59:53.298Z,99914.73
2023-04-04T21:02:29.188Z,99907.23
2023-04-04T21:05:42.202Z,99903.61
2023-04-04T21:08:56.535Z,99901.49
2023-04-04T21:11:41.399Z,99898.52
2023-04-04T21:14:47.608Z,99902.58
2023-04-04T21:17:32.143Z,99897.88
2023-04-04T21:20:40.117Z,99901.70
2023-04-04T21:23:46.579Z,99895.44
2023-04-04T21:27:08.773Z,99897.66
2023-04-04T21:34:53.077Z,99913.58
2023-04-04T21:37:53.847Z,99908.79
2023-04-04T21:41:02.458Z,99904.44
2023-04-04T21:43:49.893Z,99899.55
2023-04-04T21:46:52.838Z,99899.49
2023-04-04T21:49:50.506Z,99908.21
2023-04-04T21:52:26.609Z,99913.11
2023-04-04T21:55:19.847Z,99898.70
2023-04-04T21:57:59.727Z,99898.20
2023-04-04T22:00:39.733Z,99909.20
2023-04-04T22:03:16.866Z,99911.46
2023-04-04T22:05:57.613Z,99909.01
2023-04-04T22:08:48.434Z,99907.33
2023-04-04T22:11:53.402Z,99905.36
2023-04-04T22:14:32.586Z,99907.62
2023-04-04T22:17:23.209Z,99909.89
2023-04-04T22:20:20.613Z,99911.12
2023-04-04T22:23:39.549Z,99911.29
2023-04-04T22:26:20.609Z,99904.56
2023-04-04T22:29:14.592Z,99904.46
2023-04-04T22:32:00.247Z,99906.95
2023-04-04T22:35:01.045Z,99903.81
2023-04-04T22:37:39.334Z,99904.71
2023-04-04T22:40:13.977Z,99903.96
2023-04-04T22:42:56.874Z,99902.05
2023-04-04T22:45:40.690Z,99897.14
2023-04-04T22:48:14.242Z,99889.38
2023-04-04T22:50:58.928Z,99891.15
2023-04-04T22:53:43.228Z,99882.58
2023-04-04T22:56:31.461Z,99883.02
2023-04-04T22:59:13.711Z,99867.72
2023-04-04T23:02:06.471Z,99860.15
2023-04-04T23:04:48.265Z,99858.78
2023-04-04T23:07:32.000Z,99857.02
2023-04-04T23:10:13.737Z,99850.43
2023-04-04T23:12:53.240Z,99850.73
2023-04-04T23:15:28.118Z,99845.24
2023-04-04T23:18:12.089Z,99835.62
2023-04-04T23:20:43.101Z,99840.20
2023-04-04T23:23:19.899Z,99845.05
2023-04-04T23:25:53.153Z,99830.83
2023-04-04T23:28:24.502Z,99827.66
2023-04-04T23:30:57.509Z,99820.33
2023-04-04T23:33:39.593Z,99812.13
2023-04-04T23:36:23.543Z,99811.77
2023-04-04T23:38:59.257Z,99807.18
2023-04-04T23:41:30.588Z,99814.79
2023-04-04T23:44:00.444Z,99811.77
2023-04-04T23:46:32.928Z,99803.21
2023-04-04T23:49:06.377Z,99793.05
2023-04-04T23:51:57.500Z,99792.36
2023-04-04T23:54:30.242Z,99795.34
2023-04-04T23:57:07.294Z,99788.91
2023-04-04T23:59:39.535Z,99787.18
